Time;durP1;ratioP1;P1;durP2;ratioP2;P2;SDS_P1;SDS_P2;PMS_P1;PMS_P2;Temp;Humidity;BMP_temperature;BMP_pressure;BME280_temperature;BME280_humidity;BME280_pressure;Samples;Min_cycle;Max_cycle;Signal;HPM_P1;HPM_P2
2022/05/01 00:02:06;;;;;;;11.75;7.65;;;8.80;99.90;;;;;;5031374;28;20092;-47
2022/05/01 00:04:32;;;;;;;10.38;7.47;;;8.90;99.90;;;;;;5046530;28;20392;-47
2022/05/01 00:06:58;;;;;;;12.95;8.05;;;8.80;99.90;;;;;;5031379;28;20422;-46
2022/05/01 00:09:23;;;;;;;12.38;7.22;;;8.70;99.90;;;;;;5045311;28;20040;-47
2022/05/01 00:11:49;;;;;;;14.68;8.02;;;8.70;99.90;;;;;;5051080;28;20071;-48
2022/05/01 00:14:15;;;;;;;12.75;8.02;;;8.70;99.90;;;;;;5050860;28;20046;-46
2022/05/01 00:16:41;;;;;;;12.45;7.00;;;8.70;99.90;;;;;;5051177;28;20045;-48
2022/05/01 00:19:11;;;;;;;14.25;7.85;;;8.70;99.90;;;;;;5050806;28;20484;-48
2022/05/01 00:21:39;;;;;;;15.43;8.65;;;8.70;99.90;;;;;;5051162;28;20045;-48
2022/05/01 00:24:06;;;;;;;15.55;8.32;;;8.70;99.90;;;;;;5047296;28;20044;-48
2022/05/01 00:26:32;;;;;;;15.55;7.95;;;8.70;99.90;;;;;;5050851;28;20040;-47
2022/05/01 00:28:58;;;;;;;11.20;7.93;;;8.60;99.90;;;;;;5050922;28;20044;-46
2022/05/01 00:31:24;;;;;;;12.25;8.25;;;8.70;99.90;;;;;;5051250;28;20400;-47
2022/05/01 00:36:34;;;;;;;15.05;8.70;;;8.70;99.90;;;;;;5050644;28;20095;-47
2022/05/01 00:39:02;;;;;;;13.43;8.02;;;8.70;99.90;;;;;;5050719;28;20048;-47
2022/05/01 00:41:35;;;;;;;17.15;8.57;;;8.70;99.90;;;;;;5050833;28;20476;-48
2022/05/01 00:44:01;;;;;;;11.70;8.57;;;8.60;99.90;;;;;;5050628;28;20107;-49
2022/05/01 00:46:27;;;;;;;13.15;8.30;;;8.70;99.90;;;;;;5065329;28;20132;-46
2022/05/01 00:48:54;;;;;;;12.55;7.80;;;8.60;99.90;;;;;;5050665;28;20090;-49
2022/05/01 00:51:20;;;;;;;12.50;8.65;;;8.60;99.90;;;;;;5050774;28;20068;-47
2022/05/01 00:53:48;;;;;;;12.63;9.48;;;8.60;99.90;;;;;;5049932;28;20116;-48
2022/05/01 00:56:15;;;;;;;12.07;7.82;;;8.70;99.90;;;;;;5050293;28;20040;-48
2022/05/01 00:58:41;;;;;;;16.55;9.02;;;8.70;99.90;;;;;;5050232;28;20033;-48
2022/05/01 01:01:07;;;;;;;13.73;8.45;;;8.70;99.90;;;;;;5050577;28;20043;-49
2022/05/01 01:03:33;;;;;;;14.30;8.18;;;8.60;99.90;;;;;;5050797;28;20086;-50
2022/05/01 01:05:59;;;;;;;13.90;8.52;;;8.60;99.90;;;;;;5050609;28;20442;-46
2022/05/01 01:08:25;;;;;;;16.38;9.25;;;8.70;99.90;;;;;;5048655;28;20476;-45
2022/05/01 01:10:50;;;;;;;16.25;9.13;;;8.60;99.90;;;;;;5050277;28;20036;-45
2022/05/01 01:13:27;;;;;;;12.85;8.82;;;8.70;99.90;;;;;;5050330;28;20080;-44
2022/05/01 01:15:54;;;;;;;15.75;9.20;;;8.70;99.90;;;;;;5050235;28;20032;-44
2022/05/01 01:18:21;;;;;;;12.15;8.82;;;8.60;99.90;;;;;;5050065;28;20060;-47
2022/05/01 01:20:46;;;;;;;13.15;8.82;;;8.50;99.90;;;;;;5050580;28;20468;-46
2022/05/01 01:23:14;;;;;;;14.52;8.80;;;8.60;99.90;;;;;;5049771;28;20036;-46
2022/05/01 01:25:40;;;;;;;12.80;8.40;;;8.50;99.90;;;;;;5050528;28;20384;-48
2022/05/01 01:28:08;;;;;;;13.50;8.95;;;8.60;99.90;;;;;;5050000;28;20044;-46
2022/05/01 01:33:20;;;;;;;14.95;9.63;;;8.40;99.90;;;;;;5050158;28;20055;-48
2022/05/01 01:35:49;;;;;;;15.38;9.23;;;8.40;99.90;;;;;;5065588;28;20105;-50
2022/05/01 01:38:16;;;;;;;13.90;9.25;;;8.40;99.90;;;;;;5047350;28;20463;-49
2022/05/01 01:41:07;;;;;;;15.23;9.27;;;8.40;99.90;;;;;;5030663;28;20041;-47
2022/05/01 01:43:34;;;;;;;14.13;9.30;;;8.40;99.90;;;;;;5044113;28;20037;-46
2022/05/01 01:46:00;;;;;;;15.80;9.80;;;8.40;99.90;;;;;;5029839;28;20505;-46
2022/05/01 01:48:26;;;;;;;14.38;10.23;;;8.40;99.90;;;;;;5046202;28;20044;-48
2022/05/01 01:51:03;;;;;;;13.20;9.13;;;8.40;99.90;;;;;;5049696;28;20412;-47
2022/05/01 01:53:31;;;;;;;15.80;10.27;;;8.40;99.90;;;;;;5048570;28;20036;-47
2022/05/01 01:55:57;;;;;;;15.50;9.88;;;8.40;99.90;;;;;;5048629;28;20041;-46
2022/05/01 01:58:24;;;;;;;16.75;9.93;;;8.40;99.90;;;;;;5053538;28;20041;-46
2022/05/01 02:00:51;;;;;;;13.07;9.60;;;8.30;99.90;;;;;;5053638;28;20508;-46
2022/05/01 02:03:17;;;;;;;14.63;10.55;;;8.30;99.90;;;;;;5053382;28;20033;-46
2022/05/01 02:05:43;;;;;;;15.00;10.65;;;8.30;99.90;;;;;;5053640;28;20094;-47
2022/05/01 02:08:09;;;;;;;13.05;9.80;;;8.40;99.90;;;;;;5052363;28;20049;-47
2022/05/01 02:10:36;;;;;;;15.98;10.43;;;8.30;99.90;;;;;;5053374;28;20044;-49
2022/05/01 02:13:04;;;;;;;15.63;10.73;;;8.20;99.90;;;;;;5053411;28;20037;-49
2022/05/01 02:15:36;;;;;;;15.13;10.65;;;8.20;99.90;;;;;;5053682;28;20075;-49
2022/05/01 02:18:03;;;;;;;16.73;11.13;;;8.20;99.90;;;;;;5032093;28;20045;-47
2022/05/01 02:23:14;;;;;;;19.42;11.18;;;8.30;99.90;;;;;;5051864;28;20094;-46
2022/05/01 02:25:40;;;;;;;18.58;11.07;;;8.20;99.90;;;;;;5053201;28;20037;-46
2022/05/01 02:28:06;;;;;;;16.45;11.00;;;8.20;99.90;;;;;;5052958;28;20033;-46
2022/05/01 02:30:32;;;;;;;14.75;10.95;;;8.20;99.90;;;;;;5053498;28;20048;-48
2022/05/01 02:32:57;;;;;;;17.63;11.45;;;8.10;99.90;;;;;;5052825;28;20028;-47
2022/05/01 02:35:23;;;;;;;16.92;11.32;;;8.10;99.90;;;;;;5053152;28;20036;-48
2022/05/01 02:37:49;;;;;;;18.98;12.10;;;8.10;99.90;;;;;;5048823;28;20116;-47
2022/05/01 02:40:15;;;;;;;17.38;12.05;;;8.10;99.90;;;;;;5052782;28;20037;-47
2022/05/01 02:42:40;;;;;;;15.70;11.50;;;8.00;99.90;;;;;;5052436;28;20391;-47
2022/05/01 02:45:06;;;;;;;19.42;12.30;;;8.00;99.90;;;;;;5068319;28;20033;-48
2022/05/01 02:47:33;;;;;;;15.63;12.00;;;8.10;99.90;;;;;;5052540;28;20079;-51
2022/05/01 02:50:00;;;;;;;17.00;12.52;;;8.00;99.90;;;;;;5052555;28;20048;-48
2022/05/01 02:52:25;;;;;;;19.95;12.90;;;8.00;99.90;;;;;;5052270;28;20076;-48
2022/05/01 02:54:51;;;;;;;17.85;12.35;;;8.00;99.90;;;;;;5052643;28;20068;-46
2022/05/01 02:57:17;;;;;;;19.10;13.07;;;8.00;99.90;;;;;;5052635;28;20048;-49
2022/05/01 02:59:42;;;;;;;18.42;12.48;;;7.90;99.90;;;;;;5052390;28;20083;-49
2022/05/01 03:02:08;;;;;;;18.77;12.48;;;7.90;99.90;;;;;;5052464;28;20041;-47
2022/05/01 03:04:35;;;;;;;18.23;12.13;;;7.80;99.90;;;;;;5033612;28;20044;-47
2022/05/01 03:07:01;;;;;;;16.85;12.65;;;7.80;99.90;;;;;;5052507;28;20164;-47
2022/05/01 03:09:30;;;;;;;18.75;12.63;;;7.80;99.90;;;;;;5051916;28;20033;-48
2022/05/01 03:11:55;;;;;;;17.73;12.48;;;7.80;99.90;;;;;;5052596;28;20101;-46
2022/05/01 03:14:21;;;;;;;17.80;11.73;;;7.80;99.90;;;;;;5052142;28;20493;-48
2022/05/01 03:16:47;;;;;;;21.10;13.00;;;7.70;99.90;;;;;;5052464;28;20029;-46
2022/05/01 03:22:13;;;;;;;19.58;12.40;;;7.60;99.90;;;;;;5052174;28;20275;-46
2022/05/01 03:24:40;;;;;;;16.98;12.20;;;7.60;99.90;;;;;;5050838;28;20048;-46
2022/05/01 03:27:06;;;;;;;18.70;12.25;;;7.60;99.90;;;;;;5032891;28;20038;-47
2022/05/01 03:29:33;;;;;;;20.45;13.20;;;7.60;99.90;;;;;;5044581;28;20033;-46
2022/05/01 03:32:00;;;;;;;18.80;12.63;;;7.60;99.90;;;;;;5052238;28;20563;-46
2022/05/01 03:34:26;;;;;;;17.20;12.32;;;7.60;99.90;;;;;;5048911;28;20041;-47
2022/05/01 03:36:53;;;;;;;16.10;11.57;;;7.70;99.90;;;;;;5051755;28;20417;-47
2022/05/01 03:39:20;;;;;;;20.60;12.82;;;7.60;99.90;;;;;;5051666;28;20040;-47
2022/05/01 03:41:46;;;;;;;19.95;13.00;;;7.60;99.90;;;;;;5049231;28;20468;-48
2022/05/01 03:44:12;;;;;;;20.13;13.35;;;7.60;99.90;;;;;;5031541;28;20030;-47
2022/05/01 03:46:38;;;;;;;17.70;12.98;;;7.50;99.90;;;;;;5031497;28;20060;-48
2022/05/01 03:49:09;;;;;;;20.92;14.15;;;7.50;99.90;;;;;;5031935;28;20092;-49
2022/05/01 03:51:35;;;;;;;17.60;12.82;;;7.50;99.90;;;;;;5031834;28;20401;-48
2022/05/01 03:54:02;;;;;;;16.73;13.48;;;7.50;99.90;;;;;;5051353;28;20040;-46
2022/05/01 03:56:29;;;;;;;20.70;13.02;;;7.50;99.90;;;;;;5051596;28;20080;-46
2022/05/01 03:58:54;;;;;;;22.88;13.80;;;7.50;99.90;;;;;;5051615;28;20036;-47
2022/05/01 04:01:20;;;;;;;18.17;12.98;;;7.50;99.90;;;;;;5051462;28;20104;-48
2022/05/01 04:03:46;;;;;;;22.83;14.75;;;7.50;99.90;;;;;;5051511;28;20473;-45
2022/05/01 04:06:11;;;;;;;21.83;15.07;;;7.50;99.90;;;;;;5051685;28;20064;-46
2022/05/01 04:08:37;;;;;;;20.00;13.95;;;7.50;99.90;;;;;;5048501;28;20047;-46
2022/05/01 04:11:03;;;;;;;19.13;14.85;;;7.50;99.90;;;;;;5049871;28;20041;-47
2022/05/01 04:13:29;;;;;;;22.13;14.90;;;7.60;99.90;;;;;;5051230;28;20040;-46
2022/05/01 04:15:54;;;;;;;19.92;14.63;;;7.50;99.90;;;;;;5051285;28;20033;-48
2022/05/01 04:18:21;;;;;;;22.10;14.93;;;7.40;99.90;;;;;;5050234;28;20033;-47
2022/05/01 04:20:47;;;;;;;21.23;14.43;;;7.40;99.90;;;;;;5050879;28;20052;-48
2022/05/01 04:23:13;;;;;;;20.98;13.98;;;7.50;99.90;;;;;;5050477;28;20040;-48
2022/05/01 04:25:40;;;;;;;21.80;14.07;;;7.40;99.90;;;;;;5051254;28;20090;-48
2022/05/01 04:28:10;;;;;;;22.58;14.93;;;7.30;99.90;;;;;;5051159;28;20032;-48
2022/05/01 04:30:37;;;;;;;23.52;15.68;;;7.40;99.90;;;;;;5051085;28;20401;-47
2022/05/01 04:33:08;;;;;;;23.35;15.77;;;7.40;99.90;;;;;;5051384;28;20480;-46
2022/05/01 04:35:40;;;;;;;20.60;14.32;;;7.50;99.90;;;;;;5049805;28;20077;-46
2022/05/01 04:38:07;;;;;;;22.98;15.35;;;7.50;99.90;;;;;;5050786;28;20497;-51
2022/05/01 04:40:41;;;;;;;21.02;14.27;;;7.40;99.90;;;;;;5050988;28;20064;-48
2022/05/01 04:43:12;;;;;;;20.67;15.20;;;7.40;99.90;;;;;;5049792;28;20599;-47
2022/05/01 04:45:40;;;;;;;20.77;14.50;;;7.30;99.90;;;;;;5050757;28;20556;-48
2022/05/01 04:48:07;;;;;;;21.13;13.98;;;7.30;99.90;;;;;;5049500;28;20562;-49
2022/05/01 04:50:33;;;;;;;24.88;15.63;;;7.30;99.90;;;;;;5050742;28;20576;-48
2022/05/01 04:53:01;;;;;;;21.40;14.95;;;7.40;99.90;;;;;;5048357;28;20051;-49
2022/05/01 04:55:27;;;;;;;22.25;15.15;;;7.30;99.90;;;;;;5050887;28;20075;-47
2022/05/01 04:57:53;;;;;;;19.90;14.40;;;7.20;99.90;;;;;;5050626;28;20549;-47
2022/05/01 05:00:21;;;;;;;22.08;14.25;;;7.20;99.90;;;;;;5049318;28;20044;-48
2022/05/01 05:02:51;;;;;;;21.52;14.48;;;7.10;99.90;;;;;;5050686;28;20445;-48
2022/05/01 05:05:19;;;;;;;20.27;14.68;;;7.20;99.90;;;;;;5050534;28;20090;-47
2022/05/01 05:07:45;;;;;;;20.30;14.32;;;7.00;99.90;;;;;;5050638;28;20037;-47
2022/05/01 05:10:11;;;;;;;20.98;15.15;;;7.00;99.90;;;;;;5050387;28;20037;-45
2022/05/01 05:12:39;;;;;;;22.42;15.18;;;7.00;99.90;;;;;;5049702;28;20067;-47
2022/05/01 05:15:09;;;;;;;22.95;15.05;;;7.00;99.90;;;;;;5041610;28;20045;-49
2022/05/01 05:17:35;;;;;;;20.70;15.15;;;6.90;99.90;;;;;;5050035;28;20053;-47
2022/05/01 05:20:01;;;;;;;25.42;14.90;;;6.90;99.90;;;;;;5034582;28;20052;-46
2022/05/01 05:22:27;;;;;;;22.88;15.52;;;6.90;99.90;;;;;;5042015;28;20040;-47
2022/05/01 05:24:53;;;;;;;19.48;15.02;;;6.90;99.90;;;;;;5045258;28;20037;-47
2022/05/01 05:27:21;;;;;;;22.08;15.40;;;6.90;99.90;;;;;;5030261;28;20033;-47
2022/05/01 05:29:50;;;;;;;24.92;16.23;;;6.90;99.90;;;;;;5030117;28;20315;-46
2022/05/01 05:32:16;;;;;;;24.02;16.55;;;6.90;99.90;;;;;;5048326;28;20037;-46
2022/05/01 05:34:42;;;;;;;21.85;15.85;;;6.90;99.90;;;;;;5033995;28;20041;-47
2022/05/01 05:37:07;;;;;;;23.05;16.85;;;7.00;99.90;;;;;;5034134;28;20125;-46
2022/05/01 05:39:33;;;;;;;21.48;16.27;;;7.00;99.90;;;;;;5049861;28;20071;-46
2022/05/01 05:41:59;;;;;;;21.52;16.65;;;7.10;99.90;;;;;;5053746;28;20052;-45
2022/05/01 05:44:25;;;;;;;24.98;17.30;;;7.20;99.90;;;;;;5053901;28;20072;-47
2022/05/01 05:46:50;;;;;;;22.35;16.98;;;7.20;99.90;;;;;;5053590;28;20431;-46
2022/05/01 05:49:16;;;;;;;23.02;15.80;;;7.10;99.90;;;;;;5054268;28;20037;-46
2022/05/01 05:51:42;;;;;;;21.13;14.90;;;7.10;99.90;;;;;;5053911;28;20043;-47
2022/05/01 05:54:07;;;;;;;26.35;15.98;;;7.00;99.90;;;;;;5053197;28;20408;-46
2022/05/01 05:56:33;;;;;;;23.55;15.73;;;7.00;99.90;;;;;;5053612;28;20037;-46
2022/05/01 05:58:59;;;;;;;21.35;15.65;;;7.10;99.90;;;;;;5052452;28;20171;-47
2022/05/01 06:01:25;;;;;;;22.50;16.08;;;7.10;99.90;;;;;;5037111;28;20120;-46
2022/05/01 06:03:51;;;;;;;24.85;16.80;;;7.20;99.90;;;;;;5033695;28;20034;-45
2022/05/01 06:06:18;;;;;;;25.70;17.23;;;7.30;99.90;;;;;;5033927;28;20091;-46
2022/05/01 06:08:44;;;;;;;23.10;16.83;;;7.50;99.90;;;;;;5033973;28;20044;-47
2022/05/01 06:11:10;;;;;;;24.40;16.17;;;7.70;99.90;;;;;;5033677;28;20060;-46
2022/05/01 06:13:36;;;;;;;23.77;16.98;;;7.80;99.90;;;;;;5033533;28;20041;-49
2022/05/01 06:16:02;;;;;;;25.35;17.42;;;7.90;99.90;;;;;;5032574;28;20389;-48
2022/05/01 06:18:27;;;;;;;23.00;17.50;;;8.00;99.90;;;;;;5033613;28;20045;-46
2022/05/01 06:20:53;;;;;;;23.42;16.63;;;8.00;99.90;;;;;;5033469;28;20473;-47
2022/05/01 06:23:20;;;;;;;21.98;16.30;;;8.10;99.90;;;;;;5049415;28;20040;-47
2022/05/01 06:25:47;;;;;;;22.25;16.08;;;8.30;99.90;;;;;;5051801;28;20033;-47
2022/05/01 06:28:14;;;;;;;25.15;17.13;;;8.30;99.90;;;;;;5053180;28;20041;-48
2022/05/01 06:30:43;;;;;;;24.33;16.48;;;8.30;99.90;;;;;;5053267;28;20033;-45
2022/05/01 06:33:12;;;;;;;24.13;16.15;;;8.50;99.90;;;;;;5053336;28;20512;-48
2022/05/01 06:35:38;;;;;;;25.30;17.73;;;8.60;99.90;;;;;;5053283;28;20038;-47
2022/05/01 06:38:04;;;;;;;22.58;16.75;;;8.60;99.90;;;;;;5047494;28;20034;-47
2022/05/01 06:40:30;;;;;;;22.67;17.55;;;8.70;99.90;;;;;;5033435;28;20055;-49
2022/05/01 06:42:56;;;;;;;22.67;16.02;;;8.80;99.90;;;;;;5031520;28;20033;-48
2022/05/01 06:45:21;;;;;;;27.13;15.60;;;8.90;99.90;;;;;;5032584;28;20077;-49
2022/05/01 06:47:47;;;;;;;22.35;15.57;;;9.00;99.90;;;;;;5033129;28;20045;-48
2022/05/01 06:50:13;;;;;;;22.02;16.77;;;9.10;99.90;;;;;;5033408;28;20044;-47
2022/05/01 06:52:39;;;;;;;20.98;15.35;;;9.10;99.90;;;;;;5032532;28;20053;-46
2022/05/01 06:55:05;;;;;;;22.38;15.90;;;9.10;99.90;;;;;;5033213;28;20050;-47
2022/05/01 06:57:31;;;;;;;21.63;14.98;;;9.10;99.90;;;;;;5032641;28;20037;-47
2022/05/01 06:59:57;;;;;;;20.67;14.48;;;9.20;99.90;;;;;;5032805;28;20041;-48
2022/05/01 07:02:23;;;;;;;21.98;14.80;;;9.30;99.90;;;;;;5032847;28;20041;-48
2022/05/01 07:04:49;;;;;;;21.33;15.55;;;9.40;99.90;;;;;;5036410;28;20632;-47
2022/05/01 07:07:14;;;;;;;18.00;13.95;;;9.50;99.90;;;;;;5051665;28;20041;-48
2022/05/01 07:09:40;;;;;;;18.63;13.63;;;9.60;99.90;;;;;;5051481;28;20035;-51
2022/05/01 07:12:10;;;;;;;18.17;13.25;;;9.70;99.90;;;;;;5052258;28;20470;-49
2022/05/01 07:14:39;;;;;;;18.73;13.10;;;9.80;99.90;;;;;;5052494;28;20811;-48
2022/05/01 07:17:05;;;;;;;20.42;13.50;;;10.00;99.90;;;;;;5052205;28;20056;-46
2022/05/01 07:19:30;;;;;;;21.58;14.02;;;10.20;99.90;;;;;;5052316;28;20037;-49
2022/05/01 07:21:56;;;;;;;21.88;15.00;;;10.20;99.90;;;;;;5052243;28;20086;-46
2022/05/01 07:24:22;;;;;;;17.13;13.55;;;10.30;99.90;;;;;;5047566;28;20464;-49
2022/05/01 07:26:47;;;;;;;19.85;14.43;;;10.40;99.90;;;;;;5042713;28;20041;-49
2022/05/01 07:29:13;;;;;;;18.90;13.60;;;10.40;99.90;;;;;;5040035;28;20029;-51
2022/05/01 07:31:39;;;;;;;17.77;12.77;;;10.40;99.90;;;;;;5037269;28;20048;-48
2022/05/01 07:34:05;;;;;;;15.50;10.45;;;10.40;99.90;;;;;;5042640;28;20033;-46
2022/05/01 07:36:31;;;;;;;16.27;10.63;;;10.40;99.90;;;;;;5043508;28;20053;-47
2022/05/01 07:38:57;;;;;;;15.90;11.57;;;10.40;99.90;;;;;;5048968;28;20388;-48
2022/05/01 07:41:23;;;;;;;14.70;10.57;;;10.40;99.90;;;;;;5043403;28;20053;-49
2022/05/01 07:43:49;;;;;;;18.52;11.73;;;10.40;99.90;;;;;;5035658;28;20033;-47
2022/05/01 07:46:15;;;;;;;19.35;11.63;;;10.30;99.90;;;;;;5035066;28;20080;-46
2022/05/01 07:48:40;;;;;;;15.70;11.02;;;10.40;99.90;;;;;;5046272;28;20116;-50
2022/05/01 07:51:07;;;;;;;13.45;10.00;;;10.50;99.90;;;;;;5050474;28;20060;-47
2022/05/01 07:53:34;;;;;;;14.00;10.30;;;10.70;99.90;;;;;;5049548;28;20130;-47
2022/05/01 07:56:00;;;;;;;14.45;10.80;;;10.80;99.90;;;;;;5048990;28;20574;-49
2022/05/01 07:58:27;;;;;;;15.48;10.77;;;10.90;99.90;;;;;;5050493;28;20123;-47
2022/05/01 08:00:54;;;;;;;12.55;9.80;;;10.80;99.90;;;;;;5050265;28;20045;-51
2022/05/01 08:06:05;;;;;;;18.33;11.43;;;11.10;99.90;;;;;;5050202;28;20136;-47
2022/05/01 08:08:33;;;;;;;19.20;11.35;;;11.10;99.90;;;;;;5050012;28;20522;-48
2022/05/01 08:11:00;;;;;;;13.73;8.30;;;11.20;99.90;;;;;;5033192;28;20686;-48
2022/05/01 08:13:26;;;;;;;16.60;10.50;;;11.40;99.90;;;;;;5030075;28;20041;-47
2022/05/01 08:15:51;;;;;;;14.60;10.02;;;11.50;99.90;;;;;;5031378;28;20175;-49
2022/05/01 08:21:05;;;;;;;13.43;9.88;;;11.40;99.90;;;;;;5030771;28;20115;-46
2022/05/01 08:23:31;;;;;;;13.43;10.13;;;11.40;99.90;;;;;;5030057;28;20045;-48
2022/05/01 08:26:03;;;;;;;14.38;9.00;;;11.60;99.90;;;;;;5029913;28;20099;-48
2022/05/01 08:28:33;;;;;;;12.25;7.40;;;11.30;99.90;;;;;;5029869;28;20033;-50
2022/05/01 08:31:00;;;;;;;11.88;7.30;;;11.40;99.90;;;;;;5030270;28;20045;-50
2022/05/01 08:33:26;;;;;;;12.77;7.75;;;11.30;99.90;;;;;;5029900;28;20041;-47
2022/05/01 08:35:52;;;;;;;11.32;8.35;;;11.40;99.90;;;;;;5029931;28;20128;-48
2022/05/01 08:38:18;;;;;;;13.18;8.95;;;11.30;99.90;;;;;;5035033;28;20041;-47
2022/05/01 08:40:47;;;;;;;10.60;7.70;;;11.20;99.90;;;;;;5035508;28;20037;-47
2022/05/01 08:43:18;;;;;;;13.43;8.55;;;11.20;99.90;;;;;;5038612;28;20040;-46
2022/05/01 08:45:52;;;;;;;12.35;8.23;;;11.30;99.90;;;;;;5035851;28;20050;-47
2022/05/01 08:49:04;;;;;;;11.32;7.82;;;11.30;99.90;;;;;;5040215;28;20037;-47
2022/05/01 08:51:32;;;;;;;11.77;7.63;;;11.80;99.90;;;;;;5013519;28;20557;-51
2022/05/01 08:53:58;;;;;;;12.05;7.00;;;11.90;99.90;;;;;;5035349;28;20095;-47
2022/05/01 08:56:28;;;;;;;12.70;7.35;;;12.10;99.90;;;;;;5039749;28;20037;-48
2022/05/01 08:58:54;;;;;;;10.00;7.13;;;12.20;99.90;;;;;;5038157;28;20037;-47
2022/05/01 09:01:20;;;;;;;12.98;7.50;;;12.20;99.90;;;;;;5034187;28;20037;-47
2022/05/01 09:03:46;;;;;;;10.30;6.88;;;12.10;99.90;;;;;;5035908;28;20044;-49
2022/05/01 09:06:13;;;;;;;10.88;7.13;;;12.10;99.90;;;;;;5036887;28;20041;-49
2022/05/01 09:08:40;;;;;;;12.55;7.28;;;12.10;99.90;;;;;;5037337;28;20159;-50
2022/05/01 09:13:51;;;;;;;13.82;7.45;;;12.00;99.90;;;;;;5034917;28;20056;-45
2022/05/01 09:16:16;;;;;;;9.95;7.10;;;12.10;99.90;;;;;;5035186;28;20037;-48
2022/05/01 09:18:46;;;;;;;10.02;6.55;;;12.20;99.90;;;;;;5034922;28;20064;-48
2022/05/01 09:21:12;;;;;;;15.15;8.60;;;12.70;99.90;;;;;;5028244;28;20041;-48
2022/05/01 09:23:46;;;;;;;11.43;8.02;;;13.10;99.90;;;;;;5033425;28;20052;-47
2022/05/01 09:26:17;;;;;;;11.18;7.43;;;13.40;99.90;;;;;;5044396;28;21669;-46
2022/05/01 09:28:52;;;;;;;13.15;7.22;;;13.30;99.90;;;;;;5042527;28;20061;-48
2022/05/01 09:31:44;;;;;;;13.68;7.43;;;12.90;99.90;;;;;;5032923;28;20048;-46
2022/05/01 09:34:28;;;;;;;11.55;7.53;;;12.80;99.90;;;;;;5034513;28;20067;-47
2022/05/01 09:37:15;;;;;;;11.13;7.40;;;12.70;99.90;;;;;;5041784;28;20037;-45
2022/05/01 09:39:40;;;;;;;11.23;8.38;;;12.80;99.90;;;;;;5029185;28;20112;-46
2022/05/01 09:42:21;;;;;;;13.30;7.88;;;13.30;99.90;;;;;;5035087;28;20041;-46
2022/05/01 09:45:14;;;;;;;12.75;7.40;;;13.30;99.90;;;;;;5032549;28;20040;-47
2022/05/01 09:47:45;;;;;;;9.55;6.97;;;13.30;99.90;;;;;;5037418;28;20495;-46
2022/05/01 09:50:13;;;;;;;11.35;6.97;;;13.00;99.90;;;;;;5034096;28;20040;-46
2022/05/01 09:52:55;;;;;;;11.52;7.00;;;13.00;99.90;;;;;;5034472;28;20053;-47
2022/05/01 09:55:21;;;;;;;12.93;7.88;;;12.90;99.90;;;;;;5034533;28;20041;-46
2022/05/01 09:57:47;;;;;;;13.95;7.57;;;12.70;99.90;;;;;;5040261;28;20071;-49
2022/05/01 10:00:13;;;;;;;10.68;7.63;;;12.80;99.90;;;;;;5033983;28;20046;-47
2022/05/01 10:02:38;;;;;;;10.93;6.78;;;12.60;99.90;;;;;;5036561;28;20452;-45
2022/05/01 10:05:08;;;;;;;10.43;6.90;;;12.80;99.90;;;;;;5034410;28;20072;-46
2022/05/01 10:07:37;;;;;;;9.55;5.53;;;12.90;99.90;;;;;;5035740;28;20493;-50
2022/05/01 10:10:10;;;;;;;9.30;5.63;;;13.30;99.90;;;;;;5031537;28;20188;-46
2022/05/01 10:12:42;;;;;;;8.93;6.35;;;13.50;99.90;;;;;;5040388;28;20199;-46
2022/05/01 10:15:09;;;;;;;9.82;5.95;;;13.70;99.90;;;;;;5048066;28;20052;-50
2022/05/01 10:17:37;;;;;;;8.13;5.55;;;13.90;99.90;;;;;;5047560;28;20037;-50
2022/05/01 10:20:03;;;;;;;11.63;5.75;;;14.30;99.90;;;;;;5049253;28;20049;-46
2022/05/01 10:22:31;;;;;;;8.93;5.90;;;14.70;99.90;;;;;;5050896;28;20476;-45
2022/05/01 10:24:57;;;;;;;10.00;5.97;;;15.00;99.90;;;;;;5043049;28;20042;-46
2022/05/01 10:27:46;;;;;;;9.68;5.47;;;15.30;99.90;;;;;;5049068;28;20037;-48
2022/05/01 10:33:22;;;;;;;8.18;5.13;;;15.40;99.90;;;;;;5051200;28;20037;-49
2022/05/01 10:35:57;;;;;;;10.90;5.20;;;15.20;99.90;;;;;;5042508;28;20573;-47
2022/05/01 10:38:26;;;;;;;7.82;5.45;;;15.40;99.90;;;;;;5049689;28;20082;-48
2022/05/01 10:40:57;;;;;;;9.23;5.45;;;15.10;99.90;;;;;;5050513;28;20236;-47
2022/05/01 10:43:30;;;;;;;6.80;4.40;;;15.00;99.90;;;;;;5045117;28;20371;-47
2022/05/01 10:46:01;;;;;;;6.15;3.35;;;14.90;97.30;;;;;;5042577;28;20115;-50
2022/05/01 10:48:31;;;;;;;6.60;3.40;;;14.60;97.40;;;;;;5041668;28;20080;-46
2022/05/01 10:51:39;;;;;;;5.68;3.58;;;14.30;97.70;;;;;;5045430;28;20471;-48
2022/05/01 10:54:17;;;;;;;7.43;3.75;;;14.40;98.00;;;;;;5035818;28;21236;-48
2022/05/01 10:56:46;;;;;;;8.02;5.00;;;14.20;96.80;;;;;;5033436;28;20144;-47
2022/05/01 10:59:30;;;;;;;8.93;5.13;;;14.20;99.30;;;;;;5037235;28;20117;-47
2022/05/01 11:01:59;;;;;;;;;;;14.30;99.40;;;;;;5042038;28;20037;-47
2022/05/01 11:04:28;;;;;;;7.75;4.90;;;14.10;98.40;;;;;;5033531;28;19947;-47
2022/05/01 11:06:56;;;;;;;8.88;5.05;;;14.00;99.20;;;;;;5038220;28;20492;-49
2022/05/01 11:09:24;;;;;;;7.22;4.80;;;14.20;99.40;;;;;;5037715;28;20124;-47
2022/05/01 11:12:09;;;;;;;7.25;4.75;;;13.90;98.90;;;;;;5040006;28;20512;-46
2022/05/01 11:14:38;;;;;;;9.02;4.28;;;14.00;99.90;;;;;;5033831;28;20029;-47
2022/05/01 11:17:04;;;;;;;7.38;4.13;;;14.00;99.90;;;;;;5030122;28;20049;-46
2022/05/01 11:19:42;;;;;;;8.50;4.53;;;14.10;99.90;;;;;;5032433;28;20048;-49
2022/05/01 11:22:09;;;;;;;7.35;4.50;;;13.90;99.10;;;;;;5036836;28;20202;-48
2022/05/01 11:24:45;;;;;;;7.95;4.03;;;13.80;98.70;;;;;;5034969;28;20587;-49
2022/05/01 11:27:10;;;;;;;6.50;4.03;;;13.80;98.90;;;;;;5039371;28;20603;-45
2022/05/01 11:29:37;;;;;;;7.05;3.72;;;13.60;99.20;;;;;;5037255;28;20037;-48
2022/05/01 11:32:19;;;;;;;6.18;3.85;;;13.80;99.20;;;;;;5039110;28;20124;-49
2022/05/01 11:35:03;;;;;;;6.70;3.75;;;13.70;98.40;;;;;;5043158;28;20041;-48
2022/05/01 11:37:29;;;;;;;9.82;4.03;;;13.80;98.90;;;;;;5041572;28;20041;-45
2022/05/01 11:40:14;;;;;;;9.88;4.13;;;13.90;99.60;;;;;;5043079;28;20091;-47
2022/05/01 11:42:41;;;;;;;5.70;3.63;;;14.20;99.90;;;;;;5040911;28;20043;-50
2022/05/01 11:45:08;;;;;;;8.18;3.97;;;14.20;99.00;;;;;;5040953;28;20049;-50
2022/05/01 11:47:34;;;;;;;6.25;3.92;;;14.10;97.70;;;;;;5048784;28;20045;-49
2022/05/01 11:50:01;;;;;;;6.75;4.13;;;14.10;98.50;;;;;;5039493;28;20040;-48
2022/05/01 11:52:27;;;;;;;7.13;3.90;;;14.00;98.10;;;;;;5046746;28;20450;-51
2022/05/01 11:54:57;;;;;;;6.78;3.67;;;14.20;98.50;;;;;;5046097;28;20037;-49
2022/05/01 12:03:04;;;;;;;5.85;3.60;;;14.40;98.30;;;;;;5043698;28;20103;-47
2022/05/01 12:05:40;;;;;;;8.23;3.72;;;14.40;98.20;;;;;;5033529;28;20033;-49
2022/05/01 12:08:06;;;;;;;6.70;3.88;;;14.60;98.70;;;;;;5040284;28;20041;-47
2022/05/01 12:10:32;;;;;;;6.35;3.55;;;14.40;97.70;;;;;;5045767;28;20094;-47
2022/05/01 12:12:57;;;;;;;7.43;3.55;;;14.80;98.90;;;;;;5030772;28;20740;-46
2022/05/01 12:15:24;;;;;;;7.38;3.88;;;14.90;98.00;;;;;;5030282;28;20065;-46
2022/05/01 12:17:51;;;;;;;6.70;3.50;;;15.30;97.60;;;;;;5030314;28;20038;-47
2022/05/01 12:20:16;;;;;;;5.45;3.40;;;15.30;96.90;;;;;;5030517;28;20102;-50
2022/05/01 12:22:43;;;;;;;8.18;3.75;;;15.40;96.60;;;;;;5030340;28;20041;-47
2022/05/01 12:25:11;;;;;;;6.43;3.50;;;15.40;95.00;;;;;;5030885;28;20037;-46
2022/05/01 12:27:41;;;;;;;6.47;3.42;;;15.60;96.80;;;;;;5028763;28;20095;-47
2022/05/01 12:30:09;;;;;;;6.05;3.10;;;15.80;94.90;;;;;;5031904;28;20049;-49
2022/05/01 12:32:36;;;;;;;5.93;3.20;;;15.80;95.30;;;;;;5030331;28;20033;-50
2022/05/01 12:35:04;;;;;;;6.63;3.70;;;15.80;94.10;;;;;;5028267;28;20080;-48
2022/05/01 12:37:34;;;;;;;8.25;3.15;;;16.20;94.60;;;;;;5031288;28;20048;-47
2022/05/01 12:40:12;;;;;;;6.57;3.10;;;16.00;94.10;;;;;;5031214;28;20038;-50
2022/05/01 12:45:35;;;;;;;5.60;2.90;;;16.50;94.40;;;;;;5035487;28;20160;-50
2022/05/01 12:48:03;;;;;;;6.45;3.03;;;16.30;90.40;;;;;;5035336;28;20037;-47
2022/05/01 12:50:31;;;;;;;4.45;2.70;;;16.50;91.70;;;;;;5030661;28;20049;-47
2022/05/01 12:53:19;;;;;;;4.80;2.58;;;16.70;91.20;;;;;;5033416;28;20053;-46
2022/05/01 12:55:46;;;;;;;5.82;2.70;;;16.90;91.60;;;;;;5040169;28;20041;-48
2022/05/01 12:58:11;;;;;;;5.53;2.97;;;17.20;91.40;;;;;;5045991;28;20044;-48
2022/05/01 13:00:40;;;;;;;5.57;2.88;;;17.20;90.30;;;;;;5048293;28;20059;-47
2022/05/01 13:03:28;;;;;;;5.57;2.75;;;16.90;89.10;;;;;;5043523;28;20524;-50
2022/05/01 13:06:07;;;;;;;6.60;2.80;;;17.00;86.40;;;;;;5045380;28;20481;-47
2022/05/01 13:08:38;;;;;;;6.05;2.90;;;16.70;86.80;;;;;;5032323;28;20059;-48
2022/05/01 13:11:19;;;;;;;5.88;2.50;;;16.40;90.40;;;;;;5030035;28;20190;-47
2022/05/01 13:13:52;;;;;;;4.88;2.65;;;16.40;89.90;;;;;;5036836;28;20736;-47
2022/05/01 13:16:31;;;;;;;6.00;2.47;;;16.00;88.00;;;;;;5033042;28;20095;-49
2022/05/01 13:19:13;;;;;;;6.05;2.75;;;15.90;88.60;;;;;;5043165;28;20037;-48